createdAt,value
2022-08-27T00:04:36.072Z,13.70
2022-08-27T00:09:40.341Z,9.80
2022-08-27T00:14:43.225Z,11.80
2022-08-27T00:19:46.130Z,13.40
2022-08-27T00:24:49.281Z,10.20
2022-08-27T00:29:52.857Z,11.80
2022-08-27T00:34:55.762Z,12.30
2022-08-27T00:39:58.679Z,10.80
2022-08-27T00:45:02.286Z,15.00
2022-08-27T00:50:13.076Z,10.50
2022-08-27T00:55:28.733Z,12.10
2022-08-27T01:00:31.787Z,10.60
2022-08-27T01:05:36.559Z,12.70
2022-08-27T01:10:40.901Z,12.40
2022-08-27T01:15:44.055Z,11.90
2022-08-27T01:20:58.350Z,14.80
2022-08-27T01:26:03.743Z,12.30
2022-08-27T01:31:09.012Z,11.80
2022-08-27T01:36:12.133Z,10.60
2022-08-27T01:41:15.293Z,13.20
2022-08-27T01:46:27.904Z,12.20
2022-08-27T01:51:30.826Z,16.80
2022-08-27T01:56:33.732Z,13.30
2022-08-27T02:01:36.919Z,12.10
2022-08-27T02:06:40.663Z,12.00
2022-08-27T02:11:44.988Z,12.00
2022-08-27T02:16:52.782Z,13.80
2022-08-27T02:22:00.380Z,12.80
2022-08-27T02:27:03.442Z,10.60
2022-08-27T02:32:06.551Z,12.50
2022-08-27T02:37:09.660Z,11.80
2022-08-27T02:42:12.561Z,11.00
2022-08-27T02:47:16.921Z,10.90
2022-08-27T02:52:24.777Z,14.90
2022-08-27T02:57:28.344Z,16.20
2022-08-27T03:02:31.385Z,15.50
2022-08-27T03:07:34.658Z,16.00
2022-08-27T03:12:38.382Z,10.00
2022-08-27T03:17:59.820Z,13.50
2022-08-27T03:23:02.723Z,10.30
2022-08-27T03:28:20.640Z,13.00
2022-08-27T03:33:31.231Z,11.20
2022-08-27T03:38:34.867Z,14.40
2022-08-27T03:43:37.893Z,16.60
2022-08-27T03:48:40.797Z,13.30
2022-08-27T03:53:44.775Z,12.00
2022-08-27T03:58:47.730Z,12.80
2022-08-27T04:03:50.841Z,14.70
2022-08-27T04:08:53.742Z,17.10
2022-08-27T04:13:57.385Z,14.70
2022-08-27T04:19:00.678Z,12.10
2022-08-27T04:24:04.455Z,13.50
2022-08-27T04:29:07.714Z,12.30
2022-08-27T04:34:11.074Z,11.80
2022-08-27T04:39:14.795Z,15.60
2022-08-27T04:44:17.754Z,13.20
2022-08-27T04:49:20.663Z,10.40
2022-08-27T04:54:32.896Z,12.10
2022-08-27T04:59:36.636Z,14.00
2022-08-27T05:04:41.211Z,12.70
2022-08-27T05:09:44.320Z,10.50
2022-08-27T05:14:47.260Z,14.30
2022-08-27T05:19:50.165Z,12.20
2022-08-27T05:24:53.067Z,12.80
2022-08-27T05:29:56.176Z,16.70
2022-08-27T05:34:59.541Z,12.80
2022-08-27T05:40:04.479Z,14.70
2022-08-27T05:45:10.039Z,12.80
2022-08-27T05:50:20.726Z,12.60
2022-08-27T05:55:26.363Z,17.90
2022-08-27T06:00:47.909Z,13.80
2022-08-27T06:05:59.613Z,13.50
2022-08-27T06:11:05.161Z,12.50
2022-08-27T06:16:14.265Z,11.90
2022-08-27T06:21:24.242Z,12.40
2022-08-27T06:26:28.566Z,11.60
2022-08-27T06:31:32.405Z,11.30
2022-08-27T06:36:41.714Z,11.90
2022-08-27T06:41:45.301Z,14.10
2022-08-27T06:46:48.444Z,13.60
2022-08-27T06:51:51.348Z,11.20
2022-08-27T06:56:54.251Z,12.30
2022-08-27T07:01:57.628Z,12.00
2022-08-27T07:07:02.557Z,13.40
2022-08-27T07:12:06.754Z,12.90
2022-08-27T07:17:11.198Z,13.10
2022-08-27T07:22:19.010Z,12.50
2022-08-27T07:27:22.165Z,13.40
2022-08-27T07:32:30.594Z,13.50
2022-08-27T07:37:35.135Z,13.10
2022-08-27T07:42:57.250Z,11.30
2022-08-27T07:48:00.058Z,12.00
2022-08-27T07:53:03.057Z,9.50
2022-08-27T07:58:11.519Z,12.20
2022-08-27T08:03:15.568Z,11.00
2022-08-27T08:08:18.629Z,11.60
2022-08-27T08:13:21.534Z,14.90
2022-08-27T08:18:25.279Z,13.90
2022-08-27T08:23:28.673Z,12.00
2022-08-27T08:28:31.885Z,11.10
2022-08-27T08:33:36.047Z,9.80
2022-08-27T08:38:40.457Z,11.40
2022-08-27T08:43:49.708Z,10.00
2022-08-27T08:48:57.529Z,9.40
2022-08-27T08:54:06.271Z,10.30
2022-08-27T08:59:28.321Z,9.00
2022-08-27T09:04:31.225Z,9.30
2022-08-27T09:10:00.753Z,10.80
2022-08-27T09:15:07.085Z,9.40
2022-08-27T09:20:18.133Z,9.60
2022-08-27T09:25:26.873Z,10.30
2022-08-27T09:30:33.349Z,10.60
2022-08-27T09:35:44.906Z,9.40
2022-08-27T09:40:52.533Z,9.60
2022-08-27T09:45:59.782Z,13.20
2022-08-27T09:51:20.036Z,9.10
2022-08-27T09:56:30.918Z,10.00
2022-08-27T10:01:52.842Z,10.10
2022-08-27T10:06:56.255Z,10.90
2022-08-27T10:12:19.638Z,10.50
2022-08-27T10:17:36.368Z,11.70
2022-08-27T10:22:58.316Z,8.20
2022-08-27T10:28:01.065Z,8.30
2022-08-27T10:33:06.888Z,11.50
2022-08-27T10:38:31.809Z,11.20
2022-08-27T10:44:11.781Z,8.10
2022-08-27T10:49:38.340Z,9.50
2022-08-27T10:55:00.190Z,8.50
2022-08-27T11:00:12.285Z,9.50
2022-08-27T11:05:37.231Z,8.80
2022-08-27T11:10:46.173Z,8.10
2022-08-27T11:15:54.098Z,8.10
2022-08-27T11:21:13.283Z,12.00
2022-08-27T11:26:16.286Z,7.80
2022-08-27T11:31:37.274Z,7.80
2022-08-27T11:37:09.611Z,7.90
2022-08-27T11:42:36.373Z,10.50
2022-08-27T11:47:39.276Z,8.60
2022-08-27T11:52:55.800Z,11.40
2022-08-27T11:58:17.915Z,8.40
2022-08-27T12:03:29.120Z,8.60
2022-08-27T12:08:35.139Z,10.90
2022-08-27T12:13:59.536Z,8.40
2022-08-27T12:19:06.229Z,7.10
2022-08-27T12:24:12.102Z,11.60
2022-08-27T12:29:20.949Z,9.30
2022-08-27T12:34:29.527Z,7.80
2022-08-27T12:39:37.973Z,7.70
2022-08-27T12:44:40.868Z,7.10
2022-08-27T12:49:57.147Z,7.40
2022-08-27T12:55:11.202Z,8.70
2022-08-27T13:00:19.471Z,7.00
2022-08-27T13:05:39.595Z,8.70
2022-08-27T13:10:42.548Z,8.60
2022-08-27T13:15:49.625Z,10.50
2022-08-27T13:21:03.333Z,8.40
2022-08-27T13:26:11.998Z,8.10
2022-08-27T13:31:15.756Z,6.80
2022-08-27T13:36:34.444Z,11.00
2022-08-27T13:41:38.704Z,10.60
2022-08-27T13:46:49.395Z,12.50
2022-08-27T13:52:07.126Z,9.50
2022-08-27T13:57:11.556Z,10.20
2022-08-27T14:02:16.150Z,8.60
2022-08-27T14:07:19.000Z,10.60
2022-08-27T14:12:33.137Z,9.40
2022-08-27T14:17:38.366Z,10.40
2022-08-27T14:22:41.638Z,9.90
2022-08-27T14:27:54.001Z,8.90
2022-08-27T14:33:00.678Z,9.60
2022-08-27T14:38:23.526Z,9.20
2022-08-27T14:43:26.737Z,9.90
2022-08-27T14:48:33.435Z,10.00
2022-08-27T14:53:36.337Z,9.70
2022-08-27T14:58:39.753Z,9.10
2022-08-27T15:03:47.928Z,9.70
2022-08-27T15:08:52.048Z,9.30
2022-08-27T15:13:56.370Z,13.50
2022-08-27T15:19:01.509Z,11.10
2022-08-27T15:24:17.159Z,11.70
2022-08-27T15:29:20.761Z,9.80
2022-08-27T15:34:23.630Z,11.00
2022-08-27T15:39:26.943Z,9.70
2022-08-27T15:44:30.052Z,14.30
2022-08-27T15:49:32.954Z,10.70
2022-08-27T15:54:37.406Z,9.50
2022-08-27T15:59:40.393Z,11.40
2022-08-27T16:04:44.231Z,8.70
2022-08-27T16:09:52.190Z,9.00
2022-08-27T16:14:55.803Z,9.80
2022-08-27T16:19:59.045Z,8.40
2022-08-27T16:25:02.539Z,9.30
2022-08-27T16:35:09.389Z,9.30
2022-08-27T16:40:15.026Z,9.30
2022-08-27T16:45:22.750Z,8.70
2022-08-27T16:50:35.238Z,11.20
2022-08-27T16:55:37.958Z,11.90
2022-08-27T17:00:41.105Z,11.90
2022-08-27T17:05:43.779Z,11.30
2022-08-27T17:10:49.202Z,11.20
2022-08-27T17:15:53.198Z,10.60
2022-08-27T17:20:57.167Z,10.30
2022-08-27T17:26:00.751Z,11.10
2022-08-27T17:31:03.663Z,10.10
2022-08-27T17:36:08.351Z,11.00
2022-08-27T17:41:33.003Z,12.10
2022-08-27T17:46:37.026Z,10.10
2022-08-27T17:51:39.842Z,13.30
2022-08-27T17:56:43.970Z,10.10
2022-08-27T18:01:47.115Z,10.20
2022-08-27T18:06:50.027Z,12.00
2022-08-27T18:11:53.491Z,14.00
2022-08-27T18:16:59.731Z,14.30
2022-08-27T18:22:02.549Z,13.10
2022-08-27T18:27:06.152Z,11.80
2022-08-27T18:32:08.878Z,12.20
2022-08-27T18:37:11.611Z,11.60
2022-08-27T18:42:14.478Z,15.50
2022-08-27T18:47:17.276Z,15.40
2022-08-27T18:52:22.476Z,16.40
2022-08-27T18:57:25.334Z,16.60
2022-08-27T19:02:28.983Z,17.30
2022-08-27T19:07:32.290Z,21.70
2022-08-27T19:12:36.832Z,27.50
2022-08-27T19:17:42.110Z,26.50
2022-08-27T19:22:46.510Z,26.40
2022-08-27T19:27:51.635Z,29.30
2022-08-27T19:32:54.993Z,25.30
2022-08-27T19:38:00.240Z,20.20
2022-08-27T19:43:03.567Z,19.50
2022-08-27T19:48:06.278Z,22.90
2022-08-27T19:53:09.040Z,18.20
2022-08-27T19:58:13.637Z,22.50
2022-08-27T20:03:16.758Z,17.60
2022-08-27T20:08:20.345Z,20.70
2022-08-27T20:13:23.045Z,19.90
2022-08-27T20:18:25.779Z,20.50
2022-08-27T20:23:28.500Z,22.80
2022-08-27T20:28:40.338Z,18.30
2022-08-27T20:33:44.477Z,14.20
2022-08-27T20:38:47.609Z,17.50
2022-08-27T20:43:50.368Z,16.90
2022-08-27T20:48:53.795Z,17.50
2022-08-27T20:53:56.702Z,19.30
2022-08-27T20:59:18.020Z,14.60
2022-08-27T21:04:20.729Z,13.80
2022-08-27T21:09:23.511Z,14.20
2022-08-27T21:14:26.304Z,14.50
2022-08-27T21:19:30.580Z,15.10
2022-08-27T21:24:34.066Z,16.20
2022-08-27T21:29:37.317Z,18.60
2022-08-27T21:34:41.813Z,15.80
2022-08-27T21:39:44.930Z,13.10
2022-08-27T21:44:47.673Z,14.50
2022-08-27T21:49:50.481Z,13.70
2022-08-27T21:54:53.161Z,12.40
2022-08-27T21:59:56.136Z,11.40
2022-08-27T22:04:58.824Z,13.10
2022-08-27T22:10:01.628Z,11.90
2022-08-27T22:15:06.746Z,10.40
2022-08-27T22:20:10.697Z,15.10
2022-08-27T22:25:14.181Z,14.60
2022-08-27T22:30:17.605Z,11.00
2022-08-27T22:35:21.218Z,10.80
2022-08-27T22:40:26.128Z,11.90
2022-08-27T22:45:30.618Z,12.20
2022-08-27T22:50:33.465Z,12.10
2022-08-27T22:55:36.514Z,10.70
2022-08-27T23:00:39.668Z,10.60
2022-08-27T23:05:43.061Z,14.20
2022-08-27T23:10:45.823Z,11.20
2022-08-27T23:15:48.624Z,10.10
2022-08-27T23:20:51.586Z,11.50
2022-08-27T23:26:12.759Z,11.40
2022-08-27T23:31:16.418Z,10.90
2022-08-27T23:36:20.570Z,12.20
2022-08-27T23:41:23.645Z,10.60
2022-08-27T23:46:26.604Z,13.30
2022-08-27T23:51:29.510Z,21.00
2022-08-27T23:56:32.620Z,21.60
